Etusivu
METAR-TAF:

METAR-TAF

Lentoasemat :

Dhahran, Saudi-Arabia

Leveyspiiri: 26-16N, Pituuspiiri: 050-09E, korkeus merenpinnasta: 26 m

Tämänhetkinen sää

Tämä raportti tehtiin 30 minuuttia sitten, kello 13.00 UTC
Tuuli 18 kn pohjoisen/luoteesta
Lämpötila 25°C
Kosteus 30%
Ilmanpaine 1010 hPa
Näkyvyys: 2500 m
Hajanaisia pilviä 4000 ft:n korkeudessa
Hajonneita pilviä 10000 ft:n korkeudessa
pölymyrsky

METAR: OEDR 201300Z 34018KT 2500 BLDU SCT040 BKN100 25/06 Q1010 NOSIG

Aika: 16:30 (13:30 UTC)

Sääennuste

Tämä raportti tehtiin 4 tuntia ja 30 minuuttia sitten, kello 09.00 UTC
Ennuste voimassa 20. päivästä klo 12 UTC - 21. päivään klo 18 UTC
Tuuli 10 kn pohjoisen/luoteesta puuskistuen 20 kn:hen
Näkyvyys: 8000 m

TAF: OEDR 200900Z 2012/2118 33010G20KT 8000 NSC

Säähavainnot ja -ennusteet yli 4000 lentoasemalta (METAR- ja TAF-raportit).

Käytössä olevat sääasemat on merkitty karttaan keltaisilla ja punaisilla pisteillä.

Aseta hiiri pisteen päälle nähdäksesi sääaseman nimen.

Klikkaa sitten nähdäksesi säähavainnot ja -ennusteet.

Kartan vaihtaminen: klikkaa mustalla rastilla varustettuja vihreitä pisteitä, niin voit zoomata sisään; viivalla varustettua vihreää pistettä, niin voit zoomata ulos tai vihreitä nuolia, niin pääset viereisille kartoille.


METAR-TAF: